createdAt,value
2023-01-18T00:01:40.331Z,37.15
2023-01-18T00:04:12.230Z,37.40
2023-01-18T00:06:43.636Z,37.47
2023-01-18T00:09:17.286Z,40.22
2023-01-18T00:11:51.801Z,37.88
2023-01-18T00:14:22.970Z,40.22
2023-01-18T00:16:54.279Z,41.05
2023-01-18T00:24:32.652Z,46.33
2023-01-18T00:27:04.001Z,44.15
2023-01-18T00:29:35.114Z,39.78
2023-01-18T00:32:07.024Z,44.72
2023-01-18T00:34:39.081Z,45.67
2023-01-18T00:37:10.438Z,44.53
2023-01-18T00:39:43.897Z,41.65
2023-01-18T00:42:27.713Z,40.15
2023-01-18T00:44:58.806Z,40.90
2023-01-18T00:47:29.998Z,41.20
2023-01-18T00:52:33.951Z,43.60
2023-01-18T00:55:08.311Z,43.13
2023-01-18T00:57:39.860Z,40.03
2023-01-18T01:00:12.497Z,41.15
2023-01-18T01:02:45.159Z,41.22
2023-01-18T01:05:33.602Z,39.88
2023-01-18T01:08:06.091Z,40.60
2023-01-18T01:10:39.555Z,44.55
2023-01-18T01:13:24.803Z,48.80
2023-01-18T01:16:07.938Z,46.28
2023-01-18T01:18:52.463Z,42.40
2023-01-18T01:21:35.503Z,49.47
2023-01-18T01:24:19.647Z,43.72
2023-01-18T01:26:53.023Z,47.30
2023-01-18T01:29:24.197Z,44.80
2023-01-18T01:34:27.341Z,39.75
2023-01-18T01:36:58.359Z,43.45
2023-01-18T01:39:29.485Z,46.15
2023-01-18T01:42:02.835Z,44.60
2023-01-18T01:44:53.116Z,44.92
2023-01-18T01:47:41.157Z,43.72
2023-01-18T01:50:20.367Z,42.65
2023-01-18T01:52:51.384Z,44.92
2023-01-18T01:55:30.007Z,43.55
2023-01-18T01:58:06.208Z,44.10
2023-01-18T02:00:37.932Z,41.35
2023-01-18T02:03:12.864Z,44.45
2023-01-18T02:05:46.784Z,38.65
2023-01-18T02:08:22.903Z,40.35
2023-01-18T02:10:55.428Z,43.08
2023-01-18T02:13:29.700Z,44.42
2023-01-18T02:16:12.509Z,43.72
2023-01-18T02:18:50.426Z,41.10
2023-01-18T02:21:23.254Z,43.47
2023-01-18T02:24:32.545Z,42.15
2023-01-18T02:27:08.490Z,46.38
2023-01-18T02:30:01.603Z,42.20
2023-01-18T02:32:52.059Z,40.33
2023-01-18T02:35:31.096Z,47.23
2023-01-18T02:38:10.118Z,44.22
2023-01-18T02:40:49.611Z,43.97
2023-01-18T02:43:35.253Z,46.85
2023-01-18T02:46:26.579Z,46.40
2023-01-18T02:48:58.392Z,45.65
2023-01-18T02:51:29.211Z,44.38
2023-01-18T02:54:01.008Z,42.22
2023-01-18T02:56:35.484Z,46.38
2023-01-18T02:59:12.760Z,38.33
2023-01-18T03:01:50.553Z,43.08
2023-01-18T03:04:25.559Z,41.35
2023-01-18T03:07:00.323Z,43.40
2023-01-18T03:09:33.003Z,43.78
2023-01-18T03:12:11.716Z,41.17
2023-01-18T03:14:51.086Z,37.92
2023-01-18T03:17:32.512Z,40.58
2023-01-18T03:20:09.336Z,39.45
2023-01-18T03:22:54.559Z,42.15
2023-01-18T03:25:31.187Z,42.97
2023-01-18T03:28:19.275Z,40.92
2023-01-18T03:31:03.848Z,37.53
2023-01-18T03:33:49.317Z,39.60
2023-01-18T03:36:24.439Z,39.45
2023-01-18T03:38:59.910Z,39.80
2023-01-18T03:41:35.880Z,33.55
2023-01-18T03:44:12.697Z,36.63
2023-01-18T03:46:44.291Z,38.25
2023-01-18T03:49:19.077Z,40.35
2023-01-18T03:51:58.637Z,42.30
2023-01-18T03:54:36.914Z,38.30
2023-01-18T03:57:11.187Z,38.35
2023-01-18T03:59:42.787Z,40.20
2023-01-18T04:02:14.200Z,36.55
2023-01-18T04:07:18.366Z,35.85
2023-01-18T04:12:19.996Z,39.83
2023-01-18T04:14:51.039Z,37.83
2023-01-18T04:17:22.179Z,36.13
2023-01-18T04:19:55.779Z,34.13
2023-01-18T04:22:27.041Z,30.10
2023-01-18T04:27:29.652Z,27.20
2023-01-18T04:32:32.934Z,30.40
2023-01-18T04:35:06.467Z,28.67
2023-01-18T04:37:38.461Z,30.50
2023-01-18T04:40:10.644Z,26.10
2023-01-18T04:42:41.775Z,28.95
2023-01-18T04:45:14.701Z,27.10
2023-01-18T04:47:46.065Z,28.38
2023-01-18T04:52:50.416Z,28.02
2023-01-18T04:57:58.490Z,28.15
2023-01-18T05:00:29.319Z,28.70
2023-01-18T05:03:00.728Z,28.17
2023-01-18T05:05:35.339Z,29.95
2023-01-18T05:08:06.720Z,29.98
2023-01-18T05:10:38.163Z,27.75
2023-01-18T05:13:09.894Z,26.60
2023-01-18T05:15:40.602Z,28.98
2023-01-18T05:18:11.789Z,28.35
2023-01-18T05:20:45.342Z,29.38
2023-01-18T05:23:16.825Z,27.23
2023-01-18T05:25:48.350Z,26.63
2023-01-18T05:28:19.934Z,29.65
2023-01-18T05:30:51.591Z,27.35
2023-01-18T05:33:23.441Z,27.52
2023-01-18T05:35:59.204Z,27.20
2023-01-18T05:38:30.426Z,27.70
2023-01-18T05:43:34.171Z,24.63
2023-01-18T05:46:07.815Z,25.55
2023-01-18T05:48:38.961Z,26.92
2023-01-18T05:53:44.019Z,27.73
2023-01-18T05:56:15.452Z,26.75
2023-01-18T05:58:46.797Z,30.05
2023-01-18T06:01:17.842Z,29.85
2023-01-18T06:03:49.826Z,27.15
2023-01-18T06:06:23.382Z,25.27
2023-01-18T06:08:55.511Z,25.98
2023-01-18T06:11:26.323Z,26.27
2023-01-18T06:13:57.518Z,23.27
2023-01-18T06:16:28.750Z,25.27
2023-01-18T06:18:59.989Z,25.65
2023-01-18T06:21:33.625Z,23.50
2023-01-18T06:24:04.773Z,23.63
2023-01-18T06:26:35.591Z,23.00
2023-01-18T06:29:06.779Z,22.15
2023-01-18T06:34:09.651Z,22.35
2023-01-18T06:36:45.385Z,21.17
2023-01-18T06:39:16.517Z,19.10
2023-01-18T06:41:47.222Z,18.20
2023-01-18T06:44:18.430Z,16.42
2023-01-18T06:49:20.188Z,19.13
2023-01-18T06:54:25.003Z,18.38
2023-01-18T06:56:55.651Z,17.88
2023-01-18T06:59:28.781Z,16.77
2023-01-18T07:02:00.526Z,17.70
2023-01-18T07:04:35.465Z,17.48
2023-01-18T07:07:09.646Z,15.65
2023-01-18T07:09:41.882Z,18.63
2023-01-18T07:12:13.170Z,16.42
2023-01-18T07:14:44.354Z,13.98
2023-01-18T07:17:15.451Z,13.77
2023-01-18T07:19:47.543Z,17.20
2023-01-18T07:22:21.001Z,14.07
2023-01-18T07:24:52.183Z,13.70
2023-01-18T07:29:55.561Z,14.07
2023-01-18T07:32:26.441Z,14.60
2023-01-18T07:34:59.449Z,15.13
2023-01-18T07:37:33.804Z,15.27
2023-01-18T07:40:05.535Z,15.63
2023-01-18T07:42:36.320Z,12.57
2023-01-18T07:45:09.016Z,12.18
2023-01-18T07:47:39.961Z,13.82
2023-01-18T07:50:12.557Z,17.35
2023-01-18T07:52:46.518Z,15.60
2023-01-18T07:55:18.146Z,15.23
2023-01-18T07:57:48.934Z,25.25
2023-01-18T08:00:22.394Z,15.88
2023-01-18T08:02:54.254Z,17.95
2023-01-18T08:05:28.000Z,13.90
2023-01-18T08:08:01.587Z,16.27
2023-01-18T08:10:32.650Z,16.25
2023-01-18T08:13:03.679Z,14.27
2023-01-18T08:15:35.514Z,13.75
2023-01-18T08:18:07.216Z,16.27
2023-01-18T08:20:38.843Z,15.07
2023-01-18T08:23:12.395Z,16.65
2023-01-18T08:25:43.520Z,14.32
2023-01-18T08:28:15.033Z,14.27
2023-01-18T08:30:48.058Z,13.60
2023-01-18T08:33:19.006Z,14.70
2023-01-18T08:35:51.174Z,17.58
2023-01-18T08:38:24.984Z,15.82
2023-01-18T08:40:56.704Z,18.90
2023-01-18T08:43:27.962Z,17.45
2023-01-18T08:45:59.498Z,16.80
2023-01-18T08:48:30.411Z,16.35
2023-01-18T08:51:05.175Z,16.77
2023-01-18T08:53:38.781Z,14.68
2023-01-18T08:56:11.046Z,13.43
2023-01-18T08:58:41.988Z,16.75
2023-01-18T09:01:13.555Z,14.02
2023-01-18T09:03:45.181Z,15.10
2023-01-18T09:06:16.902Z,16.85
2023-01-18T09:08:53.469Z,15.20
2023-01-18T09:11:24.630Z,14.85
2023-01-18T09:14:01.258Z,14.88
2023-01-18T09:16:34.024Z,13.10
2023-01-18T09:19:06.574Z,11.75
2023-01-18T09:21:37.832Z,10.63
2023-01-18T09:26:44.490Z,14.68
2023-01-18T09:29:16.664Z,10.85
2023-01-18T09:31:49.366Z,14.05
2023-01-18T09:34:20.387Z,16.13
2023-01-18T09:36:54.133Z,11.82
2023-01-18T09:39:27.549Z,10.70
2023-01-18T09:42:01.990Z,9.40
2023-01-18T09:44:35.755Z,8.52
2023-01-18T09:47:14.832Z,9.68
2023-01-18T09:49:55.146Z,9.13
2023-01-18T09:52:36.118Z,8.38
2023-01-18T09:55:18.426Z,10.30
2023-01-18T09:58:06.568Z,9.68
2023-01-18T10:00:43.062Z,9.05
2023-01-18T10:03:20.007Z,8.15
2023-01-18T10:06:08.757Z,8.95
2023-01-18T10:08:48.563Z,7.38
2023-01-18T10:11:27.395Z,14.98
2023-01-18T10:14:06.584Z,7.10
2023-01-18T10:16:40.696Z,6.45
2023-01-18T10:19:19.346Z,6.43
2023-01-18T10:21:58.127Z,13.50
2023-01-18T10:24:38.252Z,6.47
2023-01-18T10:27:32.095Z,7.30
2023-01-18T10:30:17.478Z,7.43
2023-01-18T10:32:53.879Z,7.90
2023-01-18T10:35:32.332Z,14.38
2023-01-18T10:38:07.876Z,12.35
2023-01-18T10:40:40.607Z,7.57
2023-01-18T10:43:20.771Z,7.63
2023-01-18T10:45:53.496Z,9.18
2023-01-18T10:48:33.140Z,11.43
2023-01-18T10:51:06.268Z,8.07
2023-01-18T10:53:38.900Z,7.93
2023-01-18T10:56:15.911Z,7.97
2023-01-18T10:58:56.194Z,11.60
2023-01-18T11:01:29.487Z,19.77
2023-01-18T11:04:06.298Z,10.43
2023-01-18T11:06:48.789Z,27.88
2023-01-18T11:09:44.399Z,17.90
2023-01-18T11:12:37.619Z,11.15
2023-01-18T11:15:37.815Z,9.73
2023-01-18T11:18:13.355Z,8.05
2023-01-18T11:20:50.266Z,8.98
2023-01-18T11:23:25.660Z,8.45
2023-01-18T11:26:00.937Z,8.65
2023-01-18T11:28:37.979Z,10.25
2023-01-18T11:31:18.221Z,10.77
2023-01-18T11:33:54.948Z,11.15
2023-01-18T11:36:37.873Z,11.00
2023-01-18T11:39:27.617Z,10.50
2023-01-18T11:42:15.220Z,11.30
2023-01-18T11:44:51.995Z,8.95
2023-01-18T11:47:32.348Z,12.88
2023-01-18T11:50:21.244Z,17.08
2023-01-18T11:52:56.806Z,10.48
2023-01-18T11:55:36.608Z,12.75
2023-01-18T12:05:59.394Z,13.27
2023-01-18T12:09:14.320Z,14.15
2023-01-18T12:12:18.196Z,15.45
2023-01-18T12:15:01.319Z,18.25
2023-01-18T12:18:07.815Z,14.10
2023-01-18T12:21:03.711Z,15.55
2023-01-18T12:26:39.736Z,11.43
2023-01-18T12:29:32.265Z,10.98
2023-01-18T12:32:13.643Z,9.38
2023-01-18T12:37:34.488Z,12.48
2023-01-18T12:40:34.330Z,11.07
2023-01-18T12:43:15.373Z,11.40
2023-01-18T12:45:51.440Z,13.52
2023-01-18T12:48:27.915Z,12.55
2023-01-18T12:51:00.667Z,13.93
2023-01-18T12:53:41.442Z,10.25
2023-01-18T12:56:18.032Z,9.10
2023-01-18T12:58:53.002Z,10.85
2023-01-18T13:01:24.911Z,9.73
2023-01-18T13:04:05.142Z,9.90
2023-01-18T13:06:36.239Z,14.40
2023-01-18T13:09:16.765Z,11.40
2023-01-18T13:11:48.676Z,11.63
2023-01-18T13:14:27.176Z,13.88
2023-01-18T13:17:09.083Z,17.80
2023-01-18T13:19:45.972Z,11.80
2023-01-18T13:22:28.684Z,11.02
2023-01-18T13:25:26.577Z,12.43
2023-01-18T13:28:02.885Z,14.90
2023-01-18T13:30:36.098Z,17.73
2023-01-18T13:33:17.274Z,16.80
2023-01-18T13:35:54.681Z,16.35
2023-01-18T13:38:40.722Z,13.63
2023-01-18T13:41:17.086Z,16.50
2023-01-18T13:44:06.968Z,15.88
2023-01-18T13:46:42.582Z,16.50
2023-01-18T13:49:38.723Z,16.38
2023-01-18T13:52:35.776Z,21.25
2023-01-18T13:55:26.184Z,19.85
2023-01-18T13:58:00.505Z,19.80
2023-01-18T14:00:32.998Z,16.58
2023-01-18T14:03:09.094Z,16.92
2023-01-18T14:05:41.866Z,18.83
2023-01-18T14:08:23.220Z,18.60
2023-01-18T14:13:55.245Z,17.45
2023-01-18T14:16:30.998Z,15.27
2023-01-18T14:19:06.645Z,19.58
2023-01-18T14:21:49.832Z,16.35
2023-01-18T14:24:37.922Z,32.08
2023-01-18T14:27:11.386Z,62.15
2023-01-18T14:29:48.640Z,71.80
2023-01-18T14:32:26.299Z,73.70
2023-01-18T14:35:02.102Z,40.55
2023-01-18T14:37:34.646Z,52.03
2023-01-18T14:40:16.939Z,95.75
2023-01-18T14:42:51.941Z,79.00
2023-01-18T14:45:30.705Z,61.40
2023-01-18T14:48:06.052Z,70.43
2023-01-18T14:50:41.535Z,54.60
2023-01-18T14:53:19.166Z,86.45
2023-01-18T14:56:09.933Z,63.45
2023-01-18T14:58:43.809Z,117.35
2023-01-18T15:01:32.570Z,85.90
2023-01-18T15:04:08.319Z,139.25
2023-01-18T15:06:44.651Z,89.93
2023-01-18T15:09:16.659Z,117.78
2023-01-18T15:11:49.532Z,85.95
2023-01-18T15:14:23.518Z,65.80
2023-01-18T15:16:56.538Z,157.15
2023-01-18T15:19:35.960Z,200.57
2023-01-18T15:22:08.620Z,84.72
2023-01-18T15:24:42.875Z,89.68
2023-01-18T15:27:16.645Z,89.07
2023-01-18T15:29:50.915Z,32.47
2023-01-18T15:32:25.450Z,43.03
2023-01-18T15:35:00.356Z,35.13
2023-01-18T15:37:34.063Z,36.58
2023-01-18T15:40:07.388Z,38.38
2023-01-18T15:42:44.684Z,49.85
2023-01-18T15:45:22.528Z,72.70
2023-01-18T15:47:56.539Z,65.70
2023-01-18T15:50:36.441Z,69.18
2023-01-18T15:53:12.150Z,54.97
2023-01-18T15:55:48.565Z,76.15
2023-01-18T15:58:32.207Z,84.85
2023-01-18T16:01:05.050Z,87.38
2023-01-18T16:03:39.336Z,66.60
2023-01-18T16:06:20.111Z,49.30
2023-01-18T16:09:02.482Z,59.83
2023-01-18T16:11:35.088Z,85.97
2023-01-18T16:14:13.303Z,49.33
2023-01-18T16:16:44.992Z,42.03
2023-01-18T16:19:24.563Z,55.85
2023-01-18T16:22:00.485Z,99.80
2023-01-18T16:24:37.553Z,85.10
2023-01-18T16:27:14.627Z,60.75
2023-01-18T16:29:47.751Z,64.40
2023-01-18T16:32:34.787Z,50.30
2023-01-18T16:35:14.744Z,56.13
2023-01-18T16:37:49.144Z,47.60
2023-01-18T16:40:23.163Z,45.83
2023-01-18T16:43:05.133Z,78.72
2023-01-18T16:45:38.712Z,91.38
2023-01-18T16:48:10.911Z,44.47
2023-01-18T16:50:41.920Z,35.97
2023-01-18T16:53:15.933Z,46.25
2023-01-18T16:55:48.443Z,57.13
2023-01-18T16:58:21.514Z,116.43
2023-01-18T17:00:58.670Z,57.53
2023-01-18T17:03:30.532Z,59.08
2023-01-18T17:06:02.632Z,246.95
2023-01-18T17:08:36.295Z,89.05
2023-01-18T17:11:08.270Z,134.80
2023-01-18T17:13:39.086Z,178.35
2023-01-18T17:16:17.005Z,47.72
2023-01-18T17:18:49.990Z,144.45
2023-01-18T17:21:21.321Z,136.48
2023-01-18T17:26:26.427Z,42.08
2023-01-18T17:28:57.191Z,31.88
2023-01-18T17:31:29.712Z,25.30
2023-01-18T17:34:02.432Z,28.50
2023-01-18T17:36:33.884Z,26.75
2023-01-18T17:39:08.960Z,33.47
2023-01-18T17:41:40.757Z,86.25
2023-01-18T17:44:11.667Z,125.93
2023-01-18T17:46:42.772Z,58.58
2023-01-18T17:49:13.482Z,63.63
2023-01-18T17:51:44.519Z,32.88
2023-01-18T17:54:21.032Z,24.52
2023-01-18T17:56:53.352Z,30.65
2023-01-18T17:59:24.983Z,22.38
2023-01-18T18:01:57.317Z,27.48
2023-01-18T18:04:28.109Z,32.03
2023-01-18T18:06:59.852Z,21.42
2023-01-18T18:09:38.301Z,21.48
2023-01-18T18:12:09.950Z,19.67
2023-01-18T18:14:41.085Z,19.90
2023-01-18T18:17:12.265Z,21.50
2023-01-18T18:22:14.341Z,27.15
2023-01-18T18:24:47.640Z,26.17
2023-01-18T18:27:21.066Z,24.75
2023-01-18T18:29:52.713Z,23.77
2023-01-18T18:32:23.768Z,19.02
2023-01-18T18:34:54.566Z,22.33
2023-01-18T18:37:25.772Z,22.60
2023-01-18T18:42:31.040Z,21.95
2023-01-18T18:45:01.788Z,32.50
2023-01-18T18:47:33.202Z,29.02
2023-01-18T18:50:03.850Z,26.65
2023-01-18T18:52:35.579Z,17.77
2023-01-18T18:55:11.239Z,38.10
2023-01-18T18:57:42.635Z,53.92
2023-01-18T19:00:14.870Z,45.90
2023-01-18T19:02:46.833Z,46.33
2023-01-18T19:05:18.140Z,34.80
2023-01-18T19:07:51.208Z,30.85
2023-01-18T19:10:30.785Z,27.08
2023-01-18T19:13:05.032Z,32.05
2023-01-18T19:15:40.560Z,25.88
2023-01-18T19:18:12.928Z,25.65
2023-01-18T19:20:44.292Z,24.85
2023-01-18T19:23:15.847Z,20.60
2023-01-18T19:25:51.170Z,24.20
2023-01-18T19:28:23.115Z,16.88
2023-01-18T19:30:55.166Z,17.85
2023-01-18T19:33:27.741Z,19.63
2023-01-18T19:35:59.161Z,19.20
2023-01-18T19:38:30.438Z,53.50
2023-01-18T19:41:06.784Z,34.65
2023-01-18T19:43:39.023Z,24.30
2023-01-18T19:46:11.115Z,22.98
2023-01-18T19:48:42.554Z,24.95
2023-01-18T19:51:21.738Z,22.13
2023-01-18T19:53:55.447Z,16.67
2023-01-18T19:56:30.533Z,23.63
2023-01-18T19:59:03.999Z,31.70
2023-01-18T20:01:37.247Z,25.90
2023-01-18T20:04:09.755Z,17.23
2023-01-18T20:06:43.601Z,15.10
2023-01-18T20:09:22.084Z,10.27
2023-01-18T20:11:57.999Z,11.63
2023-01-18T20:14:40.429Z,11.25
2023-01-18T20:17:12.387Z,17.23
2023-01-18T20:19:44.366Z,18.88
2023-01-18T20:22:15.784Z,15.52
2023-01-18T20:24:49.831Z,10.45
2023-01-18T20:27:25.478Z,15.20
2023-01-18T20:30:00.063Z,12.52
2023-01-18T20:32:30.976Z,12.60
2023-01-18T20:35:02.805Z,13.60
2023-01-18T20:37:35.557Z,10.35
2023-01-18T20:40:06.994Z,15.30
2023-01-18T20:42:41.413Z,35.20
2023-01-18T20:45:13.258Z,14.02
2023-01-18T20:47:45.065Z,11.07
2023-01-18T20:50:16.475Z,17.88
2023-01-18T20:57:54.818Z,11.60
2023-01-18T21:00:26.777Z,13.25
2023-01-18T21:02:57.752Z,13.23
2023-01-18T21:05:30.878Z,12.85
2023-01-18T21:08:02.315Z,10.35
2023-01-18T21:10:38.841Z,10.27
2023-01-18T21:13:18.319Z,9.20
2023-01-18T21:15:57.874Z,8.40
2023-01-18T21:18:29.778Z,8.50
2023-01-18T21:21:02.531Z,8.93
2023-01-18T21:23:39.637Z,8.95
2023-01-18T21:26:14.337Z,6.93
2023-01-18T21:28:48.440Z,7.78
2023-01-18T21:31:21.387Z,6.25
2023-01-18T21:33:53.169Z,6.47
2023-01-18T21:36:27.133Z,6.45
2023-01-18T21:39:01.927Z,8.52
2023-01-18T21:41:45.498Z,7.45
2023-01-18T21:44:31.490Z,10.48
2023-01-18T21:47:04.637Z,11.57
2023-01-18T21:52:53.909Z,9.77
2023-01-18T21:55:27.161Z,8.60
2023-01-18T21:58:10.802Z,10.10
2023-01-18T22:00:44.672Z,10.32
2023-01-18T22:03:18.726Z,7.50
2023-01-18T22:05:48.062Z,7.78
2023-01-18T22:08:19.843Z,7.13
2023-01-18T22:10:50.994Z,7.57
2023-01-18T22:13:24.524Z,7.82
2023-01-18T22:15:58.673Z,6.35
2023-01-18T22:18:31.511Z,5.80
2023-01-18T22:21:02.666Z,7.32
2023-01-18T22:23:34.765Z,8.30
2023-01-18T22:26:06.262Z,8.27
2023-01-18T22:28:37.520Z,7.63
2023-01-18T22:33:45.779Z,8.57
2023-01-18T22:36:16.612Z,8.65
2023-01-18T22:38:48.402Z,7.38
2023-01-18T22:41:21.663Z,7.72
2023-01-18T22:43:54.677Z,7.60
2023-01-18T22:46:28.268Z,9.35
2023-01-18T22:49:00.699Z,8.27
2023-01-18T22:51:31.660Z,8.40
2023-01-18T22:54:02.969Z,7.50
2023-01-18T22:59:06.115Z,8.25
2023-01-18T23:01:40.931Z,7.10
2023-01-18T23:04:13.207Z,8.45
2023-01-18T23:06:50.930Z,8.25
2023-01-18T23:09:23.275Z,7.57
2023-01-18T23:11:54.590Z,8.40
2023-01-18T23:14:38.212Z,9.50
2023-01-18T23:17:25.943Z,8.85
2023-01-18T23:19:57.216Z,8.60
2023-01-18T23:22:28.181Z,8.55
2023-01-18T23:24:59.975Z,8.27
2023-01-18T23:27:30.923Z,7.82
2023-01-18T23:30:02.870Z,8.18
2023-01-18T23:32:37.583Z,7.78
2023-01-18T23:35:10.907Z,6.68
2023-01-18T23:37:41.857Z,7.32
2023-01-18T23:40:26.790Z,8.25
2023-01-18T23:43:09.941Z,8.60
2023-01-18T23:45:53.601Z,9.02
2023-01-18T23:48:39.586Z,10.10
2023-01-18T23:51:23.282Z,9.98
2023-01-18T23:54:06.462Z,11.43
2023-01-18T23:56:38.138Z,11.73
2023-01-18T23:59:09.252Z,9.63
